Flight Track Log - Related Links

Times and Time Zones

All times are in EDT time to prevent confusion due to time zone crossing. See the DAL3784 flight status page for this flight to view local times or setup timezone preferences in your user account.

Time Position Orientation Groundspeed Altitude Reporting Facility
EDT Latitude Longitude Course Direction KTS MPH feet Rate Location/Type
Sun 05:57:43 PM 44.2150 -88.4278 125° Southeast 218 251 5,000  Level Chicago Center
Sun 05:58:45 PM 44.2025 -88.3217 99° East 262 302 7,300 2,390 Climbing Chicago Center
Sun 05:59:00 PM 44.1723 -88.0115 100° East  Level FlightAware Approximate
Sun 05:59:46 PM 44.1892 -88.2025 99° East 295 339 9,900  Level Minneapolis Center
Sun 06:00:00 PM 44.1550 -87.8847 101° East  Level FlightAware Approximate
Sun 06:00:48 PM 44.1744 -88.0681 99° East 341 392 11,100  Level Minneapolis Center
Sun 06:01:00 PM 44.1369 -87.7580 101° East  Level FlightAware Approximate
Sun 06:01:49 PM 44.1539 -87.8969 99° East 377 434 13,800  Level Minneapolis Center
Sun 06:02:00 PM 44.1040 -87.6286 115° Southeast  Level FlightAware Approximate
Sun 06:02:51 PM 44.1364 -87.7531 100° East 377 434 16,200  Level Minneapolis Center
Sun 06:03:00 PM 44.0489 -87.5144 125° Southeast  Level FlightAware Approximate
Sun 06:03:52 PM 44.1019 -87.6161 109° East 379 436 18,000  Level Minneapolis Center
Sun 06:04:54 PM 44.0439 -87.4847 122° Southeast 392 451 19,100 1,317 Climbing Minneapolis Center
Sun 06:05:55 PM 43.9856 -87.3483 121° Southeast 403 464 20,700 1,512 Climbing Minneapolis Center
Sun 06:06:57 PM 43.9247 -87.2072 121° Southeast 415 478 22,200 1,122 Climbing Minneapolis Center
Sun 06:07:58 PM 43.8642 -87.0689 121° Southeast 419 482 23,000 393 Climbing Minneapolis Center
Sun 06:08:59 PM 43.8142 -86.9153 114° Southeast 436 502 23,000  Level Minneapolis Center
Sun 06:10:01 PM 43.7622 -86.7583 115° Southeast 447 514 23,000  Level Minneapolis Center
Sun 06:11:02 PM 43.7106 -86.5994 114° Southeast 453 521 23,000  Level Minneapolis Center
Sun 06:12:04 PM 43.6581 -86.4383 114° Southeast 458 527 23,000  Level Minneapolis Center
Sun 06:13:05 PM 43.6042 -86.2781 115° Southeast 460 529 23,000  Level Minneapolis Center
Sun 06:14:07 PM 43.5403 -86.0825 114° Southeast 463 533 23,000  Level Minneapolis Center
Sun 06:15:08 PM 43.4856 -85.9194 115° Southeast 465 535 23,000  Level Minneapolis Center
Sun 06:16:10 PM 43.4306 -85.7581 115° Southeast 464 534 23,000  Level Minneapolis Center
Sun 06:17:11 PM 43.3767 -85.5961 115° Southeast 462 532 23,000  Level Minneapolis Center
Sun 06:18:13 PM 43.3214 -85.4358 115° Southeast 462 532 23,000  Level Minneapolis Center
Sun 06:18:40 PM 43.2969 -85.3703 117° Southeast 473 544 23,000  Level Cleveland Center
Sun 06:19:40 PM 43.2472 -85.2067 113° Southeast 468 539 23,000  Level Cleveland Center
Sun 06:20:40 PM 43.2122 -85.0389 106° East 461 531 23,000  Level Cleveland Center
Sun 06:21:40 PM 43.1811 -84.8658 104° East 461 531 23,000  Level Cleveland Center
Sun 06:22:40 PM 43.1478 -84.6956 105° East 461 531 23,000  Level Cleveland Center
Sun 06:23:40 PM 43.1161 -84.5256 104° East 461 531 23,000  Level Cleveland Center
Sun 06:24:40 PM 43.0842 -84.3556 104° East 461 531 23,000 -1,050 Level Cleveland Center
Sun 06:25:40 PM 43.0519 -84.1917 105° East 456 525 20,900 -2,350 Descending Cleveland Center
Sun 06:26:40 PM 43.0211 -84.0394 105° East 440 506 18,300 -2,350 Descending Cleveland Center
Sun 06:27:40 PM 42.9939 -83.8986 105° East 410 472 16,200 -2,563 Descending Cleveland Center
Sun 06:28:23 PM 42.9508 -83.8086 123° Southeast 353 406 13,900 -2,500 Descending Cleveland Center
Sun 06:28:40 PM 42.9386 -83.7964 144° Southeast 352 405 13,700 -1,869 Descending Cleveland Center
Sun 06:29:24 PM 42.8667 -83.7561 158° South 332 382 12,000 -1,600 Descending Cleveland Center
Sun 06:29:40 PM 42.8525 -83.7467 154° Southeast 324 373 12,100 -97 Climbing Cleveland Center
Sun 06:30:26 PM 42.7867 -83.7094 157° South 291 335 11,900 -729 Descending Cleveland Center
Sun 06:31:27 PM 42.7192 -83.6667 155° Southeast 252 290 10,800 -1,219 Descending Cleveland Center
Sun 06:32:34 PM 42.6667 -83.5933 134° Southeast 245 282 9,300 -1,173 Descending Cleveland Center
Sun 06:33:40 PM 42.6311 -83.5211 124° Southeast 239 275 8,200 -1,282 Descending Cleveland Center
Sun 06:34:31 PM 42.5975 -83.4489 122° Southeast 233 268 6,800 -1,050 Descending Cleveland Center
Sun 06:35:40 PM 42.5639 -83.3769 122° Southeast 226 260 6,100 -393 Descending Cleveland Center
Sun 06:36:33 PM 42.5106 -83.3408 153° Southeast 220 253 6,000 -632 Descending Cleveland Center
Sun 06:37:34 PM 42.4525 -83.3269 170° South 214 246 4,900 -984 Descending Cleveland Center
Sun 06:38:35 PM 42.3942 -83.3189 174° South 194 223 4,000 -885 Descending Cleveland Center

Login

Don't have an account? Register now (free) for customized features, flight alerts, and more!